Time;durP1;ratioP1;P1;durP2;ratioP2;P2;SDS_P1;SDS_P2;PMS_P1;PMS_P2;Temp;Humidity;BMP_temperature;BMP_pressure;BME280_temperature;BME280_humidity;BME280_pressure;Samples;Min_cycle;Max_cycle;Signal;HPM_P1;HPM_P2
2021/06/30 00:00:01;;;;;;;9.83;8.80;;;;;;;20.39;68.98;100923.34;3646110;22;20280;-85
2021/06/30 00:10:03;;;;;;;10.73;8.10;;;;;;;20.28;67.65;100909.69;3640566;22;20323;-84
2021/06/30 00:14:58;;;;;;;9.17;8.13;;;;;;;20.21;67.66;100908.94;3644325;22;20268;-87
2021/06/30 00:17:23;;;;;;;9.40;7.97;;;;;;;20.18;67.29;100898.59;3647561;22;20252;-87
2021/06/30 00:19:49;;;;;;;7.47;6.87;;;;;;;20.09;67.72;100892.72;3642593;22;20275;-87
2021/06/30 00:22:15;;;;;;;9.90;8.00;;;;;;;20.07;67.87;100887.50;3592596;40;20252;-86
2021/06/30 00:24:40;;;;;;;9.67;8.67;;;;;;;20.01;68.59;100884.16;3623314;23;20245;-87
2021/06/30 01:21:38;;;;;;;10.03;9.13;;;;;;;20.06;70.49;100858.94;3610322;39;20305;-81
2021/06/30 01:24:03;;;;;;;10.73;9.33;;;;;;;20.09;70.90;100854.53;3611998;39;20204;-82
2021/06/30 01:26:28;;;;;;;10.33;9.33;;;;;;;20.22;71.22;100865.59;3611581;39;20224;-82
2021/06/30 01:28:54;;;;;;;10.13;9.13;;;;;;;20.12;71.60;100859.69;3611458;39;20230;-82
2021/06/30 01:31:19;;;;;;;10.40;9.50;;;;;;;20.11;72.44;100867.53;3611794;39;20255;-81
2021/06/30 01:33:44;;;;;;;12.60;10.47;;;;;;;20.13;72.57;100858.81;3611986;39;20236;-81
2021/06/30 01:36:10;;;;;;;10.27;9.30;;;;;;;20.13;71.99;100850.16;3611428;39;20757;-82
2021/06/30 01:38:35;;;;;;;11.17;10.17;;;;;;;20.18;72.50;100861.34;3611869;39;20224;-81
2021/06/30 01:41:01;;;;;;;12.17;10.00;;;;;;;20.23;72.58;100854.31;3611702;39;20700;-82
2021/06/30 01:43:26;;;;;;;12.73;11.53;;;;;;;20.24;72.49;100856.88;3611497;39;20224;-82
2021/06/30 01:45:53;;;;;;;11.17;10.07;;;;;;;20.23;72.71;100856.91;3611753;39;20739;-81
2021/06/30 01:48:18;;;;;;;10.67;9.57;;;;;;;20.30;72.20;100872.34;3611364;39;20232;-85
2021/06/30 01:50:45;;;;;;;9.53;8.73;;;;;;;20.30;72.08;100864.56;3611721;39;20227;-84
2021/06/30 01:53:10;;;;;;;10.77;9.67;;;;;;;20.32;71.89;100870.56;3611473;39;20268;-81
2021/06/30 01:55:36;;;;;;;11.67;9.90;;;;;;;20.39;72.17;100872.19;3611403;39;20219;-82
2021/06/30 01:58:01;;;;;;;9.77;8.83;;;;;;;20.39;72.21;100871.31;3611761;39;20232;-87
2021/06/30 02:00:27;;;;;;;10.80;9.77;;;;;;;20.40;71.88;100873.88;3611125;39;20289;-82
2021/06/30 02:02:52;;;;;;;14.97;13.47;;;;;;;20.40;71.68;100879.09;3611351;39;20236;-82
2021/06/30 02:05:21;;;;;;;12.17;10.97;;;;;;;20.38;72.16;100867.88;3611862;39;20830;-86
2021/06/30 02:07:48;;;;;;;12.00;10.80;;;;;;;20.39;71.86;100876.50;3611326;39;20223;-82
2021/06/30 02:10:14;;;;;;;12.43;11.13;;;;;;;20.37;72.37;100881.78;3611652;39;20280;-82
2021/06/30 02:12:41;;;;;;;17.00;15.33;;;;;;;20.26;72.68;100882.88;3611345;39;20248;-82
2021/06/30 02:15:16;;;;;;;17.67;15.83;;;;;;;20.20;72.47;100877.75;3611698;39;20213;-82
2021/06/30 02:17:42;;;;;;;13.17;11.93;;;;;;;20.25;72.14;100882.00;3611338;39;20231;-82
2021/06/30 02:20:10;;;;;;;13.57;12.20;;;;;;;20.21;72.62;100875.13;3611273;39;20243;-81
2021/06/30 02:22:38;;;;;;;13.10;11.30;;;;;;;20.30;72.18;100872.34;3611566;39;20231;-82
2021/06/30 02:25:08;;;;;;;15.00;11.87;;;;;;;20.38;72.07;100860.06;3611322;39;21033;-81
2021/06/30 02:27:34;;;;;;;13.10;11.77;;;;;;;20.41;72.19;100859.97;3611210;39;20781;-81
2021/06/30 02:29:59;;;;;;;14.67;12.70;;;;;;;20.44;71.97;100862.53;3611176;39;20255;-81
2021/06/30 02:32:25;;;;;;;12.50;11.30;;;;;;;20.38;72.12;100867.88;3611086;39;20216;-82
2021/06/30 02:34:51;;;;;;;13.00;11.90;;;;;;;20.41;72.04;100861.75;3611590;39;20224;-81
2021/06/30 02:37:16;;;;;;;17.67;16.07;;;;;;;20.18;72.12;100869.97;3611576;39;20270;-82
2021/06/30 02:39:41;;;;;;;18.70;16.90;;;;;;;20.12;72.48;100871.84;3610910;39;20244;-81
2021/06/30 02:42:06;;;;;;;21.07;19.07;;;;;;;19.81;72.91;100863.72;3611013;39;20221;-82
2021/06/30 02:44:32;;;;;;;17.87;16.23;;;;;;;19.80;72.50;100872.41;3610978;39;21058;-82
2021/06/30 02:46:57;;;;;;;18.80;16.90;;;;;;;19.74;72.98;100863.84;3611541;39;20220;-81
2021/06/30 02:49:23;;;;;;;24.70;19.63;;;;;;;19.63;72.67;100865.78;3610875;39;20231;-83
2021/06/30 02:51:48;;;;;;;23.77;21.30;;;;;;;19.64;72.99;100864.91;3611400;39;20224;-81
2021/06/30 02:54:13;;;;;;;20.63;18.63;;;;;;;19.65;73.08;100864.00;3611375;39;20224;-81
2021/06/30 02:56:39;;;;;;;22.87;19.33;;;;;;;19.53;73.41;100872.03;3611410;39;20220;-81
2021/06/30 02:59:04;;;;;;;24.30;21.73;;;;;;;19.68;72.84;100866.56;3612217;39;20266;-83
2021/06/30 03:01:29;;;;;;;21.50;19.30;;;;;;;19.70;72.60;100863.06;3612854;39;20247;-83
2021/06/30 03:03:55;;;;;;;21.90;19.60;;;;;;;19.64;72.32;100865.78;3612518;39;20239;-83
2021/06/30 03:06:20;;;;;;;22.40;20.07;;;;;;;19.65;72.56;100864.88;3612897;39;20241;-82
2021/06/30 03:08:45;;;;;;;25.00;21.30;;;;;;;19.65;72.56;100869.22;3612419;39;20779;-82
2021/06/30 03:11:10;;;;;;;24.30;21.13;;;;;;;19.68;72.28;100871.75;3612360;39;20236;-81
2021/06/30 03:13:36;;;;;;;19.93;17.83;;;;;;;19.68;72.30;100872.63;3612160;39;20284;-82
2021/06/30 03:16:01;;;;;;;19.80;17.77;;;;;;;19.64;72.65;100876.16;3612812;39;20213;-82
2021/06/30 03:18:26;;;;;;;19.27;17.33;;;;;;;19.64;71.96;100888.28;3612431;39;20885;-82
2021/06/30 03:20:51;;;;;;;16.67;14.97;;;;;;;19.67;71.53;100880.44;3612493;39;20297;-81
2021/06/30 03:23:17;;;;;;;19.43;14.80;;;;;;;19.62;71.57;100887.47;3612776;39;20228;-81
2021/06/30 03:25:42;;;;;;;18.40;16.50;;;;;;;19.61;71.74;100888.31;3612657;39;20283;-81
2021/06/30 03:28:07;;;;;;;23.90;21.43;;;;;;;19.61;71.42;100893.53;3612732;39;20245;-82
2021/06/30 03:30:34;;;;;;;21.53;18.03;;;;;;;19.58;71.02;100888.41;3612293;39;20266;-81
2021/06/30 03:33:01;;;;;;;23.20;20.70;;;;;;;19.45;71.10;100877.34;3612865;39;20238;-80
2021/06/30 03:35:27;;;;;;;24.07;19.43;;;;;;;19.46;71.07;100880.78;3612469;39;20731;-82
2021/06/30 03:37:52;;;;;;;19.00;17.00;;;;;;;19.30;71.52;100877.56;3612498;39;20305;-81
2021/06/30 03:40:18;;;;;;;29.47;22.77;;;;;;;19.31;71.82;100875.84;3612208;39;20235;-80
2021/06/30 03:42:43;;;;;;;26.90;21.70;;;;;;;19.27;71.25;100874.19;3612151;39;20815;-82
2021/06/30 03:45:09;;;;;;;35.70;24.60;;;;;;;19.18;71.77;100876.88;3612256;39;20228;-82
2021/06/30 03:47:35;;;;;;;25.43;19.20;;;;;;;19.09;72.10;100885.66;3612166;39;20285;-82
2021/06/30 03:50:00;;;;;;;29.07;22.20;;;;;;;19.13;72.04;100884.75;3612000;39;20846;-82
2021/06/30 03:52:26;;;;;;;41.90;27.07;;;;;;;19.04;72.39;100878.81;3612040;39;20220;-82
2021/06/30 03:54:53;;;;;;;38.87;27.00;;;;;;;19.00;72.85;100880.59;3612162;39;20237;-81
2021/06/30 03:57:18;;;;;;;47.33;29.53;;;;;;;19.20;72.37;100875.13;3612075;39;20240;-82
2021/06/30 03:59:43;;;;;;;47.17;30.53;;;;;;;19.12;72.20;100876.97;3611667;39;20247;-81
2021/06/30 04:02:08;;;;;;;38.40;26.00;;;;;;;19.05;73.00;100888.31;3611990;39;20209;-81
2021/06/30 04:04:34;;;;;;;31.90;21.17;;;;;;;18.94;73.26;100893.69;3612502;39;20270;-81
2021/06/30 04:06:59;;;;;;;33.33;22.77;;;;;;;18.95;73.16;100886.72;3612387;39;20219;-81
2021/06/30 04:09:24;;;;;;;34.40;23.97;;;;;;;18.96;73.21;100885.84;3611394;39;20281;-81
2021/06/30 04:11:49;;;;;;;34.90;24.37;;;;;;;19.06;73.33;100888.28;3609459;39;20323;-82
2021/06/30 04:14:15;;;;;;;47.87;30.77;;;;;;;18.95;73.75;100887.59;3612292;39;20949;-81
2021/06/30 04:16:40;;;;;;;36.27;25.90;;;;;;;18.97;73.66;100896.22;3610863;39;20271;-81
2021/06/30 04:19:05;;;;;;;34.13;25.93;;;;;;;19.04;73.66;100894.38;3611151;39;20223;-81
2021/06/30 04:21:31;;;;;;;31.00;21.60;;;;;;;19.04;73.33;100889.19;3611825;39;20240;-83
2021/06/30 04:23:57;;;;;;;32.37;24.07;;;;;;;19.12;73.63;100895.16;3612344;39;20243;-82
2021/06/30 04:26:22;;;;;;;26.93;19.93;;;;;;;19.10;73.62;100892.56;3612402;39;20216;-82
2021/06/30 04:28:47;;;;;;;32.83;22.37;;;;;;;19.16;73.57;100892.47;3611946;39;20874;-80
2021/06/30 04:31:14;;;;;;;33.00;22.87;;;;;;;19.26;73.42;100882.84;3612320;39;20232;-81
2021/06/30 04:33:40;;;;;;;34.40;22.70;;;;;;;19.31;73.21;100881.91;3611915;39;20212;-82
2021/06/30 04:36:05;;;;;;;51.63;29.90;;;;;;;19.23;73.88;100880.28;3611926;39;20241;-81
2021/06/30 04:38:30;;;;;;;33.77;22.67;;;;;;;19.34;73.40;100886.19;3612338;39;20204;-82
2021/06/30 04:40:59;;;;;;;33.03;23.00;;;;;;;19.40;73.12;100891.28;3612112;39;20240;-81
2021/06/30 04:43:24;;;;;;;36.47;24.87;;;;;;;19.51;72.80;100882.44;3612047;39;20236;-81
2021/06/30 04:45:49;;;;;;;31.70;21.23;;;;;;;19.51;72.95;100879.84;3612304;39;20217;-81
2021/06/30 04:48:15;;;;;;;46.37;30.20;;;;;;;19.61;72.60;100883.13;3611958;39;20232;-81
2021/06/30 04:50:41;;;;;;;42.30;27.67;;;;;;;19.74;72.74;100875.13;3612166;39;20236;-81
2021/06/30 04:53:06;;;;;;;49.17;31.23;;;;;;;19.83;73.02;100879.28;3612017;39;20777;-82
2021/06/30 04:55:31;;;;;;;50.10;33.27;;;;;;;19.77;73.31;100880.25;3611788;39;20269;-82
2021/06/30 04:57:57;;;;;;;55.73;34.30;;;;;;;19.78;73.17;100874.19;3611740;39;20220;-81
2021/06/30 05:00:22;;;;;;;38.73;25.27;;;;;;;19.89;72.44;100880.03;3612085;39;20248;-83
2021/06/30 05:02:47;;;;;;;51.23;32.90;;;;;;;19.99;72.32;100886.78;3611633;39;20227;-83
2021/06/30 05:05:16;;;;;;;35.77;24.77;;;;;;;20.13;71.90;100884.81;3612139;39;20243;-82
2021/06/30 05:07:41;;;;;;;46.07;30.03;;;;;;;20.13;71.59;100886.56;3611615;39;20232;-82
2021/06/30 05:10:07;;;;;;;35.83;25.67;;;;;;;20.11;71.96;100884.00;3611864;39;20243;-83
2021/06/30 05:12:32;;;;;;;47.73;31.67;;;;;;;20.26;70.91;100888.91;3611905;39;20246;-82
2021/06/30 05:14:57;;;;;;;38.57;27.00;;;;;;;20.32;70.87;100882.75;3611500;39;20862;-82
2021/06/30 05:17:23;;;;;;;34.60;25.10;;;;;;;20.33;70.74;100885.31;3611936;39;20224;-83
2021/06/30 05:19:49;;;;;;;46.97;33.70;;;;;;;20.52;70.74;100880.59;3611567;39;20812;-83
2021/06/30 05:22:14;;;;;;;31.20;22.20;;;;;;;20.35;71.13;100878.31;3611497;39;20242;-81
2021/06/30 05:24:39;;;;;;;41.70;29.00;;;;;;;20.42;70.73;100877.31;3611532;39;20216;-82
2021/06/30 05:27:05;;;;;;;43.43;29.03;;;;;;;20.55;70.42;100875.31;3611989;39;20227;-83
2021/06/30 05:29:31;;;;;;;45.30;33.50;;;;;;;20.63;69.92;100869.06;3611813;39;20244;-84
2021/06/30 05:31:56;;;;;;;46.03;34.43;;;;;;;20.43;71.20;100871.22;3611333;39;20286;-82
2021/06/30 05:34:21;;;;;;;46.47;35.50;;;;;;;20.50;70.89;100870.19;3611491;39;20212;-83
2021/06/30 05:36:50;;;;;;;42.33;31.97;;;;;;;20.77;69.34;100872.22;3611940;39;20224;-82
2021/06/30 05:39:16;;;;;;;48.60;35.60;;;;;;;20.64;70.13;100857.75;3611709;39;20835;-82
2021/06/30 05:41:43;;;;;;;41.40;32.03;;;;;;;20.56;70.32;100853.59;3611824;39;20224;-83
2021/06/30 05:44:09;;;;;;;40.90;33.57;;;;;;;20.34;70.82;100849.72;3611905;39;20299;-82
2021/06/30 05:46:34;;;;;;;41.20;35.30;;;;;;;20.26;71.26;100843.84;3611486;39;20282;-82
2021/06/30 05:49:00;;;;;;;39.67;33.20;;;;;;;20.18;70.89;100851.78;3591971;39;20267;-82
2021/06/30 05:51:25;;;;;;;35.10;29.43;;;;;;;20.21;71.15;100856.06;3601304;39;20243;-82
2021/06/30 05:53:50;;;;;;;41.87;33.10;;;;;;;20.27;71.16;100855.97;3601568;39;20229;-82
2021/06/30 05:56:15;;;;;;;35.80;30.00;;;;;;;20.42;71.71;100858.25;3601226;39;20217;-83
2021/06/30 05:58:41;;;;;;;31.17;27.77;;;;;;;20.46;70.54;100859.91;3594572;39;21130;-81
2021/06/30 06:01:06;;;;;;;32.73;29.13;;;;;;;20.69;70.34;100863.72;3600617;39;20245;-83
2021/06/30 06:03:31;;;;;;;34.60;30.40;;;;;;;20.65;70.28;100859.50;3601418;39;20228;-82
2021/06/30 06:05:56;;;;;;;28.73;25.60;;;;;;;20.80;69.96;100859.16;3600985;39;20236;-83
2021/06/30 06:08:22;;;;;;;32.13;28.73;;;;;;;20.81;69.77;100860.84;3601079;39;20785;-82
2021/06/30 06:10:47;;;;;;;29.03;25.97;;;;;;;20.92;69.29;100850.25;3600961;39;20245;-82
2021/06/30 06:13:12;;;;;;;33.77;30.17;;;;;;;21.07;68.89;100842.94;3601525;39;20216;-82
2021/06/30 06:15:38;;;;;;;33.43;29.93;;;;;;;21.30;68.19;100845.00;3600922;39;20217;-84
2021/06/30 06:18:07;;;;;;;30.80;27.50;;;;;;;21.44;67.89;100848.97;3601134;39;20231;-83
2021/06/30 06:20:32;;;;;;;32.27;28.60;;;;;;;21.56;67.22;100848.66;3600783;39;20309;-82
2021/06/30 06:22:57;;;;;;;32.03;28.63;;;;;;;21.60;66.86;100844.25;3601457;39;20837;-83
2021/06/30 06:25:23;;;;;;;31.37;28.20;;;;;;;21.78;66.87;100849.00;3601054;39;20236;-83
2021/06/30 06:27:48;;;;;;;35.90;32.17;;;;;;;21.68;66.51;100843.16;3601286;39;20223;-82
2021/06/30 06:30:14;;;;;;;35.97;32.13;;;;;;;21.47;67.23;100842.84;3600222;39;20232;-84
2021/06/30 06:32:39;;;;;;;38.10;34.10;;;;;;;21.45;67.20;100840.25;3600754;39;20233;-80
2021/06/30 06:35:06;;;;;;;35.50;31.70;;;;;;;21.53;67.15;100840.06;3600430;39;20229;-83
2021/06/30 06:37:32;;;;;;;34.27;30.63;;;;;;;21.59;66.91;100840.78;3600904;39;20229;-82
2021/06/30 06:39:58;;;;;;;36.53;32.27;;;;;;;21.55;66.96;100844.34;3601130;39;20928;-83
2021/06/30 06:42:23;;;;;;;37.93;33.93;;;;;;;21.54;66.89;100841.78;3600770;39;20233;-83
2021/06/30 06:44:49;;;;;;;32.30;28.70;;;;;;;21.68;65.98;100847.50;3601128;39;20300;-83
2021/06/30 06:47:15;;;;;;;35.37;31.67;;;;;;;21.62;66.28;100842.44;3601130;39;20304;-82
2021/06/30 06:49:40;;;;;;;32.50;27.33;;;;;;;21.70;66.25;100843.13;3595405;39;20277;-82
2021/06/30 06:52:06;;;;;;;39.50;35.40;;;;;;;21.84;65.70;100847.06;3601150;39;20885;-82
2021/06/30 06:54:31;;;;;;;39.17;35.10;;;;;;;21.73;65.97;100849.13;3600769;39;20274;-83
2021/06/30 06:56:57;;;;;;;38.60;34.70;;;;;;;21.75;65.84;100855.13;3600831;39;20937;-83
2021/06/30 06:59:22;;;;;;;34.67;31.20;;;;;;;21.78;65.68;100849.00;3600835;39;20220;-83
2021/06/30 07:01:47;;;;;;;30.57;27.47;;;;;;;22.03;65.84;100856.13;3599866;39;20232;-83
2021/06/30 07:04:12;;;;;;;34.30;30.90;;;;;;;22.04;65.55;100855.25;3600004;39;20283;-83
2021/06/30 07:06:38;;;;;;;35.83;32.20;;;;;;;21.99;65.18;100853.66;3600811;39;20300;-83
2021/06/30 07:09:03;;;;;;;33.73;30.43;;;;;;;22.17;64.85;100850.53;3600438;39;20213;-83
2021/06/30 07:11:29;;;;;;;37.00;33.23;;;;;;;22.03;65.00;100857.91;3601112;39;20743;-83
2021/06/30 07:13:55;;;;;;;31.67;28.53;;;;;;;22.13;64.52;100857.59;3600766;39;21043;-83
2021/06/30 07:16:20;;;;;;;38.23;34.23;;;;;;;22.07;64.01;100859.53;3601122;39;20222;-84
2021/06/30 07:18:45;;;;;;;33.07;29.77;;;;;;;22.18;64.08;100860.94;3601022;39;21035;-83
2021/06/30 07:21:11;;;;;;;33.33;29.97;;;;;;;22.24;64.50;100868.59;3600921;39;20809;-83
2021/06/30 07:23:37;;;;;;;35.60;31.87;;;;;;;22.29;63.99;100865.88;3600713;39;20241;-85
2021/06/30 07:26:04;;;;;;;34.73;31.33;;;;;;;22.18;63.78;100875.72;3601018;39;20225;-83
2021/06/30 07:28:29;;;;;;;31.43;28.30;;;;;;;22.22;63.83;100877.38;3600939;39;20225;-83
2021/06/30 07:30:55;;;;;;;32.50;29.30;;;;;;;22.38;63.35;100875.19;3600856;39;20240;-84
2021/06/30 07:33:20;;;;;;;34.07;30.57;;;;;;;22.33;63.83;100881.38;3599839;39;20241;-83
2021/06/30 07:35:46;;;;;;;34.17;30.90;;;;;;;22.24;63.86;100878.16;3601033;39;20232;-83
2021/06/30 07:38:11;;;;;;;32.20;28.80;;;;;;;22.24;63.98;100881.63;3598156;39;20296;-81
2021/06/30 07:40:37;;;;;;;33.80;30.57;;;;;;;22.04;64.75;100881.34;3600562;39;20237;-83
2021/06/30 07:43:03;;;;;;;33.67;30.33;;;;;;;21.91;64.29;100884.28;3600909;39;20300;-81
2021/06/30 07:45:29;;;;;;;31.57;28.07;;;;;;;21.98;64.20;100880.63;3602290;39;20901;-84
2021/06/30 07:47:54;;;;;;;29.43;26.40;;;;;;;22.00;63.88;100876.22;3601921;39;20213;-82
2021/06/30 07:50:20;;;;;;;30.27;27.30;;;;;;;21.82;64.86;100880.19;3602104;39;20229;-82
2021/06/30 07:52:48;;;;;;;31.60;28.30;;;;;;;21.77;64.44;100876.84;3601955;39;20866;-82
2021/06/30 07:55:14;;;;;;;32.33;29.13;;;;;;;21.75;64.92;100883.00;3603551;39;20874;-82
2021/06/30 07:57:39;;;;;;;26.87;24.13;;;;;;;21.78;64.81;100873.31;3611672;39;20228;-83
2021/06/30 08:00:06;;;;;;;29.83;26.93;;;;;;;21.73;64.91;100876.94;3612207;39;20240;-83
2021/06/30 08:02:33;;;;;;;31.13;28.03;;;;;;;21.67;65.09;100877.94;3611846;39;20257;-82
2021/06/30 08:04:58;;;;;;;29.30;26.40;;;;;;;21.69;64.66;100868.34;3612392;39;20913;-83
2021/06/30 08:07:23;;;;;;;29.20;26.20;;;;;;;21.76;64.10;100874.25;3601832;39;20220;-83
2021/06/30 08:09:49;;;;;;;30.43;27.43;;;;;;;21.86;63.98;100868.78;3611875;39;20827;-83
2021/06/30 08:12:14;;;;;;;29.00;26.00;;;;;;;21.83;64.13;100871.44;3611623;39;20224;-83
2021/06/30 08:14:39;;;;;;;27.40;24.57;;;;;;;22.01;63.26;100867.50;3612203;39;20208;-83
2021/06/30 08:17:05;;;;;;;28.10;25.33;;;;;;;22.13;62.73;100865.44;3612130;39;20225;-82
2021/06/30 08:19:30;;;;;;;28.83;26.03;;;;;;;22.14;62.30;100867.13;3611903;39;20588;-81
2021/06/30 08:21:56;;;;;;;25.77;23.30;;;;;;;22.25;62.84;100870.28;3611988;39;20224;-83
2021/06/30 08:24:21;;;;;;;31.87;28.43;;;;;;;22.21;62.05;100873.88;3612546;39;20236;-82
2021/06/30 08:26:47;;;;;;;31.40;28.37;;;;;;;22.23;61.73;100876.47;3611795;39;20754;-83
2021/06/30 08:29:12;;;;;;;26.80;24.10;;;;;;;22.14;62.52;100879.31;3611756;39;20233;-83
2021/06/30 08:31:38;;;;;;;31.30;28.30;;;;;;;22.05;62.67;100880.44;3611947;39;20213;-83
2021/06/30 08:34:03;;;;;;;30.63;27.60;;;;;;;22.01;63.24;100885.75;3612246;39;20223;-83
2021/06/30 08:36:29;;;;;;;30.87;27.73;;;;;;;21.98;62.93;100883.25;3611927;39;20216;-82
2021/06/30 08:38:54;;;;;;;31.10;28.10;;;;;;;22.19;62.86;100880.03;3612170;39;20276;-84
2021/06/30 08:41:23;;;;;;;30.10;27.10;;;;;;;22.15;62.88;100879.28;3612013;39;20851;-83
2021/06/30 08:43:49;;;;;;;29.73;26.83;;;;;;;22.18;61.71;100884.44;3611682;39;20272;-84
2021/06/30 08:46:19;;;;;;;26.03;23.47;;;;;;;22.32;62.21;100886.66;3612234;39;20210;-83
2021/06/30 08:48:44;;;;;;;28.10;25.40;;;;;;;22.45;61.73;100888.06;3611674;39;20224;-83
2021/06/30 08:51:12;;;;;;;28.83;25.97;;;;;;;22.49;61.45;100881.84;3612004;39;20220;-86
2021/06/30 08:53:41;;;;;;;25.73;23.23;;;;;;;22.65;61.03;100885.72;3612165;39;20271;-84
2021/06/30 08:56:08;;;;;;;32.37;28.93;;;;;;;22.50;60.58;100888.78;3601517;40;20213;-84
2021/06/30 08:58:34;;;;;;;32.03;28.93;;;;;;;22.34;60.94;100888.31;3601505;40;20220;-82
2021/06/30 09:01:00;;;;;;;30.50;27.60;;;;;;;22.35;59.96;100883.97;3602758;39;20244;-83
2021/06/30 09:03:25;;;;;;;27.70;25.00;;;;;;;22.57;59.60;100886.84;3611635;39;20220;-83
2021/06/30 09:08:40;;;;;;;30.30;27.30;;;;;;;22.75;58.71;100887.16;3607207;39;20275;-85
2021/06/30 09:11:10;;;;;;;31.17;28.03;;;;;;;23.14;58.26;100885.97;3604723;39;20492;-83
2021/06/30 09:13:36;;;;;;;27.80;25.10;;;;;;;23.36;57.41;100888.78;3612081;39;20305;-83
2021/06/30 09:16:02;;;;;;;30.02;27.15;;;;;;;23.73;56.87;100886.66;3611633;39;20769;-83
2021/06/30 09:18:34;;;;;;;31.77;28.67;;;;;;;23.62;56.13;100887.03;3611666;39;20266;-84
2021/06/30 09:21:22;;;;;;;32.57;29.30;;;;;;;23.58;55.75;100882.78;3611410;39;20232;-84
2021/06/30 09:24:17;;;;;;;26.55;24.05;;;;;;;23.80;55.73;100891.63;3611984;39;20232;-87
2021/06/30 09:26:48;;;;;;;29.02;26.27;;;;;;;23.76;54.88;100884.78;3611629;39;20759;-83
2021/06/30 09:29:14;;;;;;;25.60;23.10;;;;;;;23.83;55.99;100888.94;3611501;39;20220;-82
2021/06/30 09:31:44;;;;;;;25.83;23.33;;;;;;;23.89;55.21;100893.09;3611652;39;20232;-83
2021/06/30 09:34:10;;;;;;;21.98;20.02;;;;;;;23.90;55.52;100889.59;3611917;39;20248;-83
2021/06/30 09:37:05;;;;;;;21.40;19.50;;;;;;;23.72;55.00;100884.97;3611974;39;20276;-83
2021/06/30 09:39:36;;;;;;;15.95;14.45;;;;;;;23.61;56.23;100901.00;3611788;39;20314;-83
2021/06/30 09:42:03;;;;;;;16.98;15.38;;;;;;;23.41;57.23;100897.31;3611381;39;20220;-83
2021/06/30 09:44:31;;;;;;;18.63;16.75;;;;;;;23.35;57.07;100897.53;3611404;39;20232;-83
2021/06/30 09:46:56;;;;;;;20.15;18.05;;;;;;;23.12;59.15;100892.13;3611854;39;20256;-83
2021/06/30 09:49:23;;;;;;;20.80;18.83;;;;;;;23.33;58.95;100889.72;3611707;39;20236;-84
2021/06/30 09:52:09;;;;;;;22.65;20.23;;;;;;;23.36;59.22;100892.25;3611393;39;20228;-83
2021/06/30 09:54:36;;;;;;;19.58;17.60;;;;;;;23.37;59.50;100893.09;3611523;39;20216;-83
2021/06/30 09:57:06;;;;;;;20.70;18.52;;;;;;;23.35;59.26;100901.00;3611375;39;20227;-83
2021/06/30 09:59:36;;;;;;;18.92;16.98;;;;;;;23.72;58.20;100891.06;3611631;39;20228;-82
2021/06/30 10:02:04;;;;;;;21.13;18.95;;;;;;;23.53;58.14;100883.88;3611547;39;20256;-83
2021/06/30 10:04:33;;;;;;;19.73;17.70;;;;;;;23.70;57.72;100885.00;3610905;39;20739;-82
2021/06/30 10:07:05;;;;;;;22.02;19.60;;;;;;;23.68;57.76;100891.19;3610987;39;21160;-83
2021/06/30 10:09:31;;;;;;;21.67;19.40;;;;;;;23.77;57.00;100888.28;3605776;39;20272;-82
2021/06/30 10:12:12;;;;;;;20.40;18.27;;;;;;;23.99;55.86;100890.13;3611259;39;20273;-82
2021/06/30 10:14:39;;;;;;;20.90;18.80;;;;;;;23.88;56.62;100876.53;3611142;39;20748;-84
2021/06/30 10:17:08;;;;;;;20.63;18.52;;;;;;;23.86;56.52;100877.50;3611213;39;20224;-83
2021/06/30 10:19:37;;;;;;;20.88;18.77;;;;;;;23.66;56.96;100878.16;3610826;39;20248;-84
2021/06/30 10:22:05;;;;;;;20.02;17.60;;;;;;;23.92;57.22;100875.56;3611552;39;20799;-82
2021/06/30 10:24:31;;;;;;;20.30;18.23;;;;;;;23.62;58.39;100871.31;3611514;39;20221;-82
2021/06/30 10:26:56;;;;;;;17.58;15.75;;;;;;;23.66;58.78;100866.88;3611022;39;20220;-82
2021/06/30 10:29:35;;;;;;;18.75;16.95;;;;;;;23.64;58.13;100864.31;3611116;39;20235;-81
2021/06/30 10:32:04;;;;;;;22.38;19.80;;;;;;;23.54;57.76;100860.28;3611596;39;20212;-82
2021/06/30 10:34:39;;;;;;;22.00;18.20;;;;;;;23.62;58.34;100862.66;3611185;39;20248;-82
2021/06/30 10:37:18;;;;;;;17.42;15.52;;;;;;;23.80;58.22;100857.63;3611450;39;20247;-82
2021/06/30 10:39:47;;;;;;;21.92;18.85;;;;;;;23.67;57.83;100856.34;3611265;39;20677;-83
2021/06/30 10:42:23;;;;;;;20.00;17.75;;;;;;;23.68;58.00;100855.44;3610531;39;20220;-82
2021/06/30 10:44:52;;;;;;;18.83;16.90;;;;;;;23.53;58.54;100855.94;3611395;39;20220;-82
2021/06/30 10:47:40;;;;;;;21.55;17.85;;;;;;;23.34;59.56;100860.06;3611343;39;20287;-84
2021/06/30 10:50:24;;;;;;;20.92;18.30;;;;;;;23.18;58.43;100856.22;3611259;39;20251;-81
2021/06/30 10:53:01;;;;;;;17.05;15.35;;;;;;;23.36;58.85;100854.78;3610716;39;20223;-82
2021/06/30 10:55:34;;;;;;;18.40;15.55;;;;;;;23.48;58.88;100851.78;3610399;39;20289;-82
2021/06/30 10:58:12;;;;;;;20.33;18.00;;;;;;;23.35;59.01;100837.41;3611498;39;20273;-82
2021/06/30 11:00:42;;;;;;;23.80;18.50;;;;;;;23.63;58.30;100856.50;3611628;39;20231;-82
2021/06/30 12:45:03;;;;;;;13.23;12.00;;;;;;;23.21;57.52;100879.66;3593747;40;20253;-88
2021/06/30 13:07:16;;;;;;;22.73;16.33;;;;;;;22.44;60.79;100891.53;1253045;22;21657;31
2021/06/30 13:10:13;;;;;;;19.07;17.07;;;;;;;22.19;61.34;100906.13;1299039;22;21662;-87
2021/06/30 17:08:33;;;;;;;23.30;20.65;;;;;;;19.94;70.36;100952.78;3576308;40;20567;-77
2021/06/30 17:11:01;;;;;;;24.93;21.47;;;;;;;19.81;71.43;100957.28;3573125;40;20234;-76
2021/06/30 17:13:27;;;;;;;22.13;19.07;;;;;;;19.82;71.08;100952.97;3568889;40;20540;-74
2021/06/30 17:15:52;;;;;;;21.43;18.97;;;;;;;19.89;70.43;100954.56;3568409;40;20258;-76
2021/06/30 17:18:17;;;;;;;23.03;18.23;;;;;;;19.89;70.21;100960.63;3577506;40;20596;-75
2021/06/30 17:20:43;;;;;;;20.33;18.23;;;;;;;19.75;70.58;100960.00;3579487;40;20224;-76
2021/06/30 17:23:08;;;;;;;18.40;16.50;;;;;;;19.61;70.53;100956.75;3579272;40;20233;-76
2021/06/30 17:25:33;;;;;;;19.73;17.63;;;;;;;19.57;71.04;100956.84;3571246;40;20230;-75
2021/06/30 17:27:59;;;;;;;17.70;16.00;;;;;;;19.56;70.34;100952.50;3570549;40;20306;-77
2021/06/30 17:30:25;;;;;;;19.00;17.07;;;;;;;19.59;70.30;100957.66;3580172;40;20234;-75
2021/06/30 17:32:55;;;;;;;17.30;15.43;;;;;;;19.53;70.33;100970.75;3579590;40;20229;-74
2021/06/30 17:35:20;;;;;;;18.10;16.30;;;;;;;19.40;71.36;100969.22;3579970;40;20226;-77
